Time;durP1;ratioP1;P1;durP2;ratioP2;P2;SDS_P1;SDS_P2;PMS_P1;PMS_P2;Temp;Humidity;BMP_temperature;BMP_pressure;BME280_temperature;BME280_humidity;BME280_pressure;Samples;Min_cycle;Max_cycle;Signal;HPM_P1;HPM_P2
2022/01/27 00:05:07;;;;;;;17.90;11.00;;;;;;;-0.76;90.25;101321.53;4882047;29;20057;-72
2022/01/27 00:07:33;;;;;;;14.90;8.33;;;;;;;-0.76;89.93;101337.66;4880625;29;20527;-73
2022/01/27 00:10:27;;;;;;;18.07;10.70;;;;;;;-0.86;90.44;101333.34;4878943;29;20044;-73
2022/01/27 00:12:47;;;;;;;19.37;10.43;;;;;;;-1.02;91.62;101330.06;4874204;29;20161;-70
2022/01/27 00:15:14;;;;;;;18.27;10.80;;;;;;;-1.00;92.22;101332.00;4903543;29;20083;-70
2022/01/27 00:17:45;;;;;;;16.77;9.90;;;;;;;-1.09;92.58;101336.16;4914055;29;20478;-74
2022/01/27 00:20:13;;;;;;;16.40;10.00;;;;;;;-1.20;93.44;101337.63;4912951;29;20088;-70
2022/01/27 00:22:39;;;;;;;19.43;11.23;;;;;;;-1.41;94.13;101315.28;4940186;28;20513;-70
2022/01/27 00:25:06;;;;;;;18.83;11.43;;;;;;;-1.45;94.33;101309.00;4975879;28;20042;-72
2022/01/27 00:27:32;;;;;;;17.73;11.17;;;;;;;-1.32;94.44;101339.88;4992912;28;20034;-68
2022/01/27 00:30:03;;;;;;;20.03;11.70;;;;;;;-1.41;94.39;101333.88;4993134;28;20085;-75
2022/01/27 00:32:29;;;;;;;21.63;12.00;;;;;;;-1.48;94.37;101319.75;4992670;28;20041;-74
2022/01/27 00:34:54;;;;;;;21.80;13.00;;;;;;;-1.28;93.80;101345.22;4992946;28;20042;-71
2022/01/27 00:37:19;;;;;;;22.67;13.13;;;;;;;-1.24;93.11;101348.22;4993028;28;20477;-70
2022/01/27 00:39:45;;;;;;;19.33;11.67;;;;;;;-1.44;92.76;101300.69;4992812;28;20089;-83
2022/01/27 00:42:10;;;;;;;19.37;11.93;;;;;;;-1.36;93.16;101339.41;4975389;28;20039;-80
2022/01/27 00:44:36;;;;;;;21.10;12.37;;;;;;;-1.64;94.47;101332.50;4992678;28;20038;-71
2022/01/27 00:47:01;;;;;;;21.27;12.13;;;;;;;-1.98;95.69;101298.78;4992901;28;20473;-74
2022/01/27 00:49:27;;;;;;;18.23;10.43;;;;;;;-1.73;96.58;101348.41;4992718;28;20027;-69
2022/01/27 00:51:53;;;;;;;21.90;11.90;;;;;;;-2.07;97.05;101294.44;4992564;28;20113;-71
2022/01/27 00:54:25;;;;;;;21.70;12.23;;;;;;;-1.78;97.45;101355.56;4991057;28;20100;-72
2022/01/27 00:59:31;;;;;;;20.67;12.03;;;;;;;-2.19;97.52;101294.09;4992155;28;20133;-72
2022/01/27 01:02:13;;;;;;;20.10;11.13;;;;;;;-1.91;98.24;101345.84;4992265;28;20081;-72
2022/01/27 01:04:42;;;;;;;19.33;11.17;;;;;;;-1.93;98.44;101342.28;4977102;28;20026;-72
2022/01/27 01:07:09;;;;;;;17.50;9.95;;;;;;;-1.84;98.21;101343.19;4992272;28;20469;-69
2022/01/27 01:17:39;;;;;;;19.83;12.00;;;;;;;-1.89;97.76;101310.56;4992242;28;20096;-70
2022/01/27 01:20:32;;;;;;;21.00;13.00;;;;;;;-1.99;97.44;101286.88;4992138;28;20042;-69
2022/01/27 01:34:13;;;;;;;21.90;12.47;;;;;;;-1.75;97.70;101319.53;4931356;29;20046;-72
2022/01/27 01:39:35;;;;;;;21.93;13.53;;;;;;;-1.70;97.55;101318.38;4931366;29;20857;-71
2022/01/27 01:42:05;;;;;;;24.57;12.33;;;;;;;-1.84;97.09;101312.81;4931340;29;20115;-71
2022/01/27 01:44:32;;;;;;;22.07;13.07;;;;;;;-1.80;97.16;101308.94;4900729;29;20039;-69
2022/01/27 01:46:58;;;;;;;23.60;13.47;;;;;;;-1.63;97.09;101321.66;4931182;29;20040;-69
2022/01/27 01:49:26;;;;;;;23.80;13.10;;;;;;;-1.65;97.10;101322.25;4930994;29;20084;-71
2022/01/27 01:51:54;;;;;;;21.67;13.13;;;;;;;-1.73;97.44;101321.50;4915176;29;20572;-71
2022/01/27 01:54:20;;;;;;;23.37;13.67;;;;;;;-1.78;97.77;101322.66;4931137;29;20036;-71
2022/01/27 01:56:45;;;;;;;22.70;12.77;;;;;;;-1.86;97.99;101334.53;4931112;29;20565;-69
2022/01/27 01:59:11;;;;;;;24.33;15.43;;;;;;;-1.87;98.29;101335.31;4931121;29;20152;-71
2022/01/27 02:01:38;;;;;;;23.13;13.43;;;;;;;-1.92;98.23;101308.59;4931078;29;20471;-72
2022/01/27 02:04:08;;;;;;;23.83;13.43;;;;;;;-2.01;97.69;101283.28;4914875;29;20495;-71
2022/01/27 02:06:43;;;;;;;;;;;;;;;-1.68;97.32;101321.94;4931443;29;20035;-69
2022/01/27 02:20:08;;;;;;;22.60;13.60;;;;;;;-1.85;96.75;101284.81;4991375;28;20415;-69
2022/01/27 02:22:34;;;;;;;25.83;14.53;;;;;;;-1.68;97.23;101325.38;4991529;28;20036;-73
2022/01/27 02:24:59;;;;;;;24.63;13.30;;;;;;;-1.75;97.33;101311.94;4991033;28;20392;-70
2022/01/27 02:27:25;;;;;;;24.33;13.50;;;;;;;-1.87;98.34;101324.25;4989202;28;20026;-70
2022/01/27 02:29:51;;;;;;;24.50;13.97;;;;;;;-2.02;98.74;101299.22;4991304;28;20036;-71
2022/01/27 02:32:18;;;;;;;23.73;14.23;;;;;;;-1.79;98.17;101320.88;4987917;28;20053;-70
2022/01/27 02:34:44;;;;;;;26.20;14.83;;;;;;;-1.73;97.39;101318.03;4989778;28;20504;-69
2022/01/27 02:37:10;;;;;;;27.37;14.37;;;;;;;-1.64;96.57;101316.44;4990917;28;20030;-71
2022/01/27 02:39:38;;;;;;;28.27;15.60;;;;;;;-1.59;96.60;101337.16;4990721;28;20030;-72
2022/01/27 02:42:33;;;;;;;28.60;15.03;;;;;;;-1.67;96.81;101336.38;4990825;28;20030;-68
2022/01/27 02:45:08;;;;;;;25.70;14.10;;;;;;;-2.04;97.73;101290.56;4994064;28;20038;-70
2022/01/27 02:47:34;;;;;;;24.00;13.67;;;;;;;-1.81;98.77;101327.41;4994985;28;20053;-71
2022/01/27 02:50:00;;;;;;;27.13;15.53;;;;;;;-1.89;99.09;101320.69;4994412;28;20065;-68
2022/01/27 02:52:26;;;;;;;25.57;15.17;;;;;;;-2.01;99.30;101303.53;4994799;28;20051;-72
2022/01/27 02:54:52;;;;;;;27.07;15.27;;;;;;;-1.88;99.13;101323.38;4994722;28;20030;-70
2022/01/27 02:57:19;;;;;;;24.93;14.13;;;;;;;-1.68;98.63;101329.56;4994680;28;20034;-71
2022/01/27 02:59:44;;;;;;;25.57;14.40;;;;;;;-1.70;98.10;101313.31;4994437;28;20396;-72
2022/01/27 03:02:10;;;;;;;25.13;14.60;;;;;;;-1.76;97.75;101295.84;4994368;28;20113;-69
2022/01/27 03:04:36;;;;;;;27.83;15.10;;;;;;;-1.74;98.08;101285.91;4994528;28;20088;-71
2022/01/27 03:07:05;;;;;;;25.70;15.80;;;;;;;-1.47;97.96;101320.63;4994601;28;20045;-73
2022/01/27 03:09:32;;;;;;;26.93;15.80;;;;;;;-1.45;97.97;101318.25;4994425;28;20034;-71
2022/01/27 03:12:06;;;;;;;25.30;14.90;;;;;;;-1.31;97.01;101325.56;4994215;28;20416;-71
2022/01/27 03:14:33;;;;;;;25.10;14.77;;;;;;;-1.39;96.84;101329.00;4994053;28;20096;-74
2022/01/27 03:17:00;;;;;;;25.20;14.87;;;;;;;-1.49;96.94;101279.06;4993994;28;20041;-71
2022/01/27 03:19:27;;;;;;;25.83;14.67;;;;;;;-1.11;95.80;101337.63;4971267;28;20101;-73
2022/01/27 03:21:54;;;;;;;26.27;15.20;;;;;;;-1.10;95.88;101329.31;4980206;28;20061;-72
2022/01/27 03:24:20;;;;;;;25.93;14.73;;;;;;;-1.04;95.41;101342.56;4993378;28;20030;-71
2022/01/27 03:26:46;;;;;;;28.50;15.93;;;;;;;-1.20;94.81;101303.81;4993544;28;20038;-68
2022/01/27 03:29:12;;;;;;;27.17;15.77;;;;;;;-1.43;95.79;101292.34;4992318;28;20026;-72
2022/01/27 03:31:38;;;;;;;25.97;15.13;;;;;;;-1.23;95.81;101333.94;4993464;28;20034;-71
2022/01/27 03:34:03;;;;;;;27.90;15.70;;;;;;;-1.22;95.95;101335.69;4992875;28;20088;-71
2022/01/27 03:36:28;;;;;;;27.23;15.53;;;;;;;-1.42;96.02;101299.19;4993595;28;20425;-69
2022/01/27 03:38:54;;;;;;;27.50;15.07;;;;;;;-1.23;96.11;101341.53;4993925;28;20023;-68
2022/01/27 03:41:21;;;;;;;26.50;15.60;;;;;;;-1.34;96.43;101322.75;4993801;28;20485;-72
2022/01/27 03:43:48;;;;;;;26.87;15.70;;;;;;;-1.22;96.28;101334.09;4993816;28;20511;-71
2022/01/27 03:46:15;;;;;;;26.63;15.10;;;;;;;-1.40;97.22;101333.16;4993052;28;20519;-72
2022/01/27 03:48:41;;;;;;;24.17;14.13;;;;;;;-1.92;97.32;101245.34;4993769;28;20026;-74
2022/01/27 03:51:06;;;;;;;22.00;12.67;;;;;;;-1.41;97.81;101338.06;4993801;28;20027;-71
2022/01/27 03:53:32;;;;;;;22.63;13.27;;;;;;;-1.41;97.97;101333.00;4993769;28;20054;-76
2022/01/27 03:55:57;;;;;;;28.93;15.10;;;;;;;-1.43;98.14;101332.88;4987287;28;20117;-70
2022/01/27 03:58:23;;;;;;;28.37;15.77;;;;;;;-1.44;98.14;101337.78;4984389;28;20038;-68
2022/01/27 04:00:49;;;;;;;25.80;14.30;;;;;;;-1.37;98.25;101350.28;4992592;28;20089;-70
2022/01/27 04:03:16;;;;;;;26.13;15.00;;;;;;;-1.36;98.45;101344.47;4993536;28;20038;-71
2022/01/27 04:05:49;;;;;;;30.23;16.87;;;;;;;-1.31;98.06;101348.34;4993378;28;20042;-74
2022/01/27 04:08:15;;;;;;;28.87;16.13;;;;;;;-1.56;97.80;101292.75;4993235;28;20034;-71
2022/01/27 04:10:40;;;;;;;26.30;15.10;;;;;;;-1.23;97.87;101347.50;4993407;28;20399;-70
2022/01/27 04:13:07;;;;;;;24.10;14.30;;;;;;;-1.29;97.43;101344.34;4992856;28;20503;-76
2022/01/27 04:15:34;;;;;;;28.30;15.70;;;;;;;-1.45;97.78;101309.00;4992873;28;20031;-70
2022/01/27 04:17:59;;;;;;;25.37;15.17;;;;;;;-1.23;97.62;101349.13;4993443;28;20113;-72
2022/01/27 04:20:25;;;;;;;28.43;15.37;;;;;;;-1.35;98.22;101361.47;4975706;28;20117;-72
2022/01/27 04:22:51;;;;;;;26.87;13.97;;;;;;;-1.42;98.87;101364.13;4992994;28;20041;-70
2022/01/27 04:25:17;;;;;;;27.53;14.63;;;;;;;-1.38;98.79;101363.72;4991821;28;20489;-74
2022/01/27 04:27:48;;;;;;;25.60;15.07;;;;;;;-1.73;99.33;101311.34;4992777;28;20110;-72
2022/01/27 04:30:19;;;;;;;25.10;13.77;;;;;;;-1.44;99.17;101368.19;4992725;28;20032;-74
2022/01/27 04:32:56;;;;;;;26.03;14.40;;;;;;;-1.67;99.48;101324.63;4992478;28;20526;-73
2022/01/27 04:35:25;;;;;;;26.20;14.57;;;;;;;-1.44;99.38;101376.66;4992933;28;20469;-71
2022/01/27 04:38:02;;;;;;;29.15;16.33;;;;;;;-1.86;99.70;101304.16;4992433;28;20085;-74
2022/01/27 04:40:38;;;;;;;28.07;15.10;;;;;;;-1.52;99.36;101355.63;4992388;28;20109;-70
2022/01/27 04:43:16;;;;;;;26.80;15.20;;;;;;;-1.32;99.50;101375.34;4992453;28;20413;-73
2022/01/27 04:48:29;;;;;;;25.93;15.30;;;;;;;-1.36;98.86;101362.22;4992391;28;20069;-73
2022/01/27 04:50:58;;;;;;;28.58;15.90;;;;;;;-1.15;98.90;101381.16;4958648;28;20046;-72
2022/01/27 04:53:30;;;;;;;27.63;16.53;;;;;;;-1.10;98.67;101390.13;4992506;28;20054;-70
2022/01/27 04:55:58;;;;;;;27.87;15.67;;;;;;;-1.24;99.28;101380.28;4975847;28;20061;-73
2022/01/27 04:58:31;;;;;;;29.17;16.37;;;;;;;-1.36;99.83;101378.31;4957733;28;20101;-70
2022/01/27 05:00:59;;;;;;;25.67;14.87;;;;;;;-1.27;99.81;101393.53;4991887;28;20501;-72
2022/01/27 05:03:36;;;;;;;28.87;16.57;;;;;;;-1.31;100.00;101392.34;4992091;28;20042;-71
2022/01/27 05:06:02;;;;;;;26.83;15.60;;;;;;;-1.34;100.00;101384.41;4992158;28;20018;-72
2022/01/27 05:08:27;;;;;;;30.03;15.70;;;;;;;-1.28;99.27;101394.28;4992281;28;20030;-69
2022/01/27 05:11:05;;;;;;;26.27;15.60;;;;;;;-1.17;99.27;101391.16;4941485;28;20493;-72
2022/01/27 05:13:38;;;;;;;26.97;16.30;;;;;;;-1.46;98.66;101337.59;4991785;28;20106;-72
2022/01/27 05:16:04;;;;;;;27.07;15.17;;;;;;;-1.22;99.04;101394.88;4991739;28;20033;-72
2022/01/27 05:18:29;;;;;;;29.53;17.07;;;;;;;-1.33;100.00;101396.34;4992115;28;20030;-74
2022/01/27 05:20:54;;;;;;;28.73;16.77;;;;;;;-1.36;100.00;101388.47;4974784;28;20492;-71
2022/01/27 05:23:20;;;;;;;29.33;15.77;;;;;;;-1.30;100.00;101405.88;4991800;28;20030;-71
2022/01/27 05:25:45;;;;;;;31.10;17.90;;;;;;;-1.32;100.00;101402.34;4991780;28;20085;-72
2022/01/27 05:28:11;;;;;;;29.07;16.50;;;;;;;-1.33;100.00;101395.47;4991719;28;20500;-71
2022/01/27 05:30:36;;;;;;;38.80;17.73;;;;;;;-1.23;99.84;101400.69;4991656;28;20034;-75
2022/01/27 05:33:02;;;;;;;30.60;17.27;;;;;;;-1.17;99.42;101395.34;4991839;28;20034;-69
2022/01/27 05:35:28;;;;;;;30.33;16.27;;;;;;;-0.99;98.69;101414.88;4992191;28;20042;-69
2022/01/27 05:37:54;;;;;;;34.00;18.97;;;;;;;-1.03;98.78;101386.56;4991772;28;20033;-74
2022/01/27 05:40:20;;;;;;;32.57;17.77;;;;;;;-0.88;98.54;101409.97;4991560;28;20030;-69
2022/01/27 05:42:45;;;;;;;29.00;16.17;;;;;;;-0.95;98.40;101403.41;4991970;28;20493;-69
2022/01/27 05:45:11;;;;;;;26.77;17.27;;;;;;;-1.08;99.11;101403.84;4991093;28;20058;-69
2022/01/27 05:47:36;;;;;;;27.20;16.00;;;;;;;-1.10;99.70;101396.84;4991362;28;20056;-72
2022/01/27 05:50:03;;;;;;;28.90;15.20;;;;;;;-1.18;100.00;101407.09;4991596;28;20026;-70
2022/01/27 05:52:29;;;;;;;30.23;17.40;;;;;;;-1.31;100.00;101378.75;4991361;28;20120;-70
2022/01/27 05:54:54;;;;;;;30.80;16.73;;;;;;;-1.04;100.00;101403.38;4991211;28;20033;-75
2022/01/27 05:57:19;;;;;;;29.90;16.20;;;;;;;-1.02;99.46;101401.91;4991416;28;20110;-76
2022/01/27 05:59:46;;;;;;;34.17;20.90;;;;;;;-0.98;99.16;101403.13;4990933;28;20026;-73
2022/01/27 06:02:11;;;;;;;31.27;17.30;;;;;;;-1.09;99.32;101396.09;4986854;28;20117;-72
2022/01/27 06:04:37;;;;;;;30.10;16.77;;;;;;;-1.25;99.21;101378.47;4976785;28;20408;-71
2022/01/27 06:07:03;;;;;;;32.97;19.60;;;;;;;-1.11;99.60;101425.44;4991310;28;20404;-69
2022/01/27 06:09:28;;;;;;;52.10;30.53;;;;;;;-1.28;100.00;101423.75;4991523;28;20429;-69
2022/01/27 06:11:55;;;;;;;30.83;18.27;;;;;;;-1.23;100.00;101417.53;4991003;28;20030;-68
2022/01/27 06:14:20;;;;;;;33.13;18.13;;;;;;;-1.09;100.00;101427.38;4990747;28;20030;-72
2022/01/27 06:16:46;;;;;;;38.93;20.33;;;;;;;-1.00;100.00;101420.72;4991245;28;20027;-69
2022/01/27 06:19:12;;;;;;;41.13;23.77;;;;;;;-0.95;99.62;101423.69;4990761;28;20034;-74
2022/01/27 06:21:39;;;;;;;34.40;19.70;;;;;;;-1.01;99.30;101415.47;4990860;28;20507;-75
2022/01/27 06:24:05;;;;;;;29.80;17.43;;;;;;;-1.13;99.41;101399.97;4991156;28;20034;-75
2022/01/27 06:26:31;;;;;;;30.40;16.43;;;;;;;-0.91;99.29;101435.00;4990963;28;20034;-72
2022/01/27 06:28:57;;;;;;;31.63;17.17;;;;;;;-0.96;99.52;101439.63;4991011;28;20500;-71
2022/01/27 06:31:22;;;;;;;29.37;17.83;;;;;;;-0.96;99.78;101447.22;4991001;28;20057;-69
2022/01/27 06:33:48;;;;;;;30.43;16.13;;;;;;;-0.95;99.52;101445.59;4990552;28;20039;-69
2022/01/27 06:36:14;;;;;;;31.60;18.23;;;;;;;-0.94;99.56;101450.81;4956366;28;20034;-71
2022/01/27 06:38:39;;;;;;;36.33;21.30;;;;;;;-0.91;99.29;101433.41;4973561;28;20041;-69
2022/01/27 06:41:05;;;;;;;43.43;23.87;;;;;;;-0.83;98.83;101436.69;4990807;28;20489;-76
2022/01/27 06:43:30;;;;;;;33.63;19.47;;;;;;;-0.83;98.52;101442.63;4990722;28;20496;-74
2022/01/27 06:45:56;;;;;;;30.83;18.87;;;;;;;-1.03;98.92;101411.91;4990765;28;20042;-69
2022/01/27 06:48:22;;;;;;;36.37;19.57;;;;;;;-1.02;99.64;101439.06;4990800;28;20109;-71
2022/01/27 06:50:53;;;;;;;32.43;17.97;;;;;;;-1.17;100.00;101413.09;4981598;28;20037;-71
2022/01/27 06:53:18;;;;;;;29.80;17.07;;;;;;;-1.00;100.00;101453.66;4982579;28;20125;-69
2022/01/27 06:55:44;;;;;;;30.77;17.80;;;;;;;-1.01;100.00;101434.13;4983164;28;20030;-71
2022/01/27 06:58:09;;;;;;;33.37;19.37;;;;;;;-1.01;100.00;101413.84;4965251;28;20129;-71
2022/01/27 07:00:34;;;;;;;47.37;29.33;;;;;;;-0.73;100.00;101448.63;4990552;28;20034;-70
2022/01/27 07:03:00;;;;;;;43.90;26.93;;;;;;;-0.61;99.65;101454.88;4989753;28;20065;-73
2022/01/27 07:05:25;;;;;;;38.53;23.83;;;;;;;-0.74;99.06;101416.41;4986665;28;20027;-73
2022/01/27 07:07:51;;;;;;;34.93;21.07;;;;;;;-0.52;98.63;101444.75;4978364;28;20497;-72
2022/01/27 07:10:16;;;;;;;34.60;21.00;;;;;;;-0.68;98.72;101410.25;4985521;28;20117;-69
2022/01/27 07:12:42;;;;;;;36.20;20.50;;;;;;;-0.37;98.89;101451.28;4984303;28;20030;-75
2022/01/27 07:15:09;;;;;;;33.40;19.83;;;;;;;-0.76;98.98;101375.69;4986377;28;20547;-69
2022/01/27 07:17:34;;;;;;;34.47;20.17;;;;;;;-0.26;98.86;101467.56;4988348;28;20030;-71
2022/01/27 07:20:00;;;;;;;30.53;17.87;;;;;;;-0.50;98.57;101428.91;4989345;28;20029;-70
2022/01/27 07:22:25;;;;;;;29.33;16.63;;;;;;;-0.32;98.61;101449.19;4989606;28;20464;-69
2022/01/27 07:24:51;;;;;;;35.57;19.77;;;;;;;-0.20;98.08;101480.84;4989439;28;20445;-67
2022/01/27 07:27:17;;;;;;;30.77;17.70;;;;;;;-0.25;97.91;101471.88;4971724;28;20034;-68
2022/01/27 07:29:43;;;;;;;31.03;19.80;;;;;;;-0.44;98.60;101451.44;4990541;28;20029;-65
2022/01/27 07:32:09;;;;;;;30.90;17.43;;;;;;;-0.36;98.60;101468.31;4992293;28;20039;-72
2022/01/27 07:34:34;;;;;;;32.13;17.63;;;;;;;-0.70;98.62;101394.03;4992174;28;20548;-68
2022/01/27 07:37:02;;;;;;;32.77;19.70;;;;;;;-0.34;98.57;101445.59;4992428;28;20081;-68
2022/01/27 07:39:27;;;;;;;29.47;18.73;;;;;;;-0.12;97.85;101471.41;4989800;28;20133;-73
2022/01/27 07:41:53;;;;;;;27.83;17.43;;;;;;;-0.33;97.58;101428.00;4992799;28;20109;-77
2022/01/27 07:44:18;;;;;;;29.93;17.67;;;;;;;0.04;97.53;101473.78;4991351;28;20030;-71
2022/01/27 07:46:44;;;;;;;30.97;18.73;;;;;;;0.15;97.84;101477.34;4984111;28;20035;-71
2022/01/27 07:49:09;;;;;;;32.47;19.57;;;;;;;0.18;97.29;101482.69;4974210;28;20063;-74
2022/01/27 07:51:36;;;;;;;29.37;16.40;;;;;;;0.25;96.95;101490.16;4973751;28;20539;-73
2022/01/27 07:54:01;;;;;;;28.50;17.20;;;;;;;0.04;96.47;101434.78;4974429;28;20367;-80
2022/01/27 07:56:27;;;;;;;35.57;19.27;;;;;;;0.36;95.36;101465.75;4974013;28;20041;-77
2022/01/27 07:58:53;;;;;;;30.27;16.60;;;;;;;0.30;95.58;101470.28;4974228;28;20477;-75
2022/01/27 08:01:18;;;;;;;30.03;16.60;;;;;;;0.27;95.63;101472.50;4974553;28;20027;-77
2022/01/27 08:03:44;;;;;;;30.40;17.27;;;;;;;0.39;96.09;101488.91;4974211;28;20031;-75
2022/01/27 08:06:09;;;;;;;29.33;16.87;;;;;;;0.51;95.39;101495.91;4974382;28;20033;-74
2022/01/27 08:08:35;;;;;;;26.53;16.40;;;;;;;0.45;95.68;101488.59;4973928;28;20057;-77
2022/01/27 08:11:01;;;;;;;30.87;18.33;;;;;;;0.42;95.98;101481.56;4973759;28;20023;-74
2022/01/27 08:13:28;;;;;;;27.13;16.87;;;;;;;0.51;95.94;101495.91;4974029;28;20035;-78
2022/01/27 08:15:53;;;;;;;27.83;16.87;;;;;;;0.58;95.80;101500.81;4973865;28;20577;-77
2022/01/27 08:18:20;;;;;;;30.47;16.93;;;;;;;0.62;95.15;101482.53;4973753;28;20109;-78
2022/01/27 08:20:47;;;;;;;30.37;16.90;;;;;;;0.66;95.13;101497.34;4973807;28;20037;-74
2022/01/27 08:23:14;;;;;;;29.83;17.67;;;;;;;0.65;94.28;101493.00;4955546;28;20516;-79
2022/01/27 08:25:40;;;;;;;28.73;17.37;;;;;;;0.75;93.79;101503.28;4973578;28;20132;-80
2022/01/27 08:28:16;;;;;;;29.57;16.73;;;;;;;0.22;93.48;101395.88;4973801;28;20118;-77
2022/01/27 08:30:46;;;;;;;26.77;17.73;;;;;;;0.93;93.31;101508.25;4973843;28;20027;-79
2022/01/27 08:33:17;;;;;;;30.57;17.30;;;;;;;0.91;93.41;101494.50;4973814;28;20031;-75
2022/01/27 08:35:43;;;;;;;30.87;17.67;;;;;;;0.98;94.02;101514.66;4973457;28;20035;-79
2022/01/27 08:38:08;;;;;;;28.60;17.63;;;;;;;0.98;94.52;101511.25;4973650;28;20034;-77
2022/01/27 08:40:34;;;;;;;25.60;15.93;;;;;;;0.98;93.81;101506.16;4973511;28;20473;-78
2022/01/27 08:43:00;;;;;;;26.70;16.07;;;;;;;0.81;93.49;101502.97;4973196;28;20117;-78
2022/01/27 08:45:26;;;;;;;28.40;16.63;;;;;;;0.37;93.33;101451.41;4973459;28;20106;-78
2022/01/27 08:47:54;;;;;;;30.27;16.87;;;;;;;0.72;94.31;101505.50;4973395;28;20035;-78
2022/01/27 08:50:21;;;;;;;25.40;15.60;;;;;;;0.89;93.00;101496.91;4973414;28;20019;-76
2022/01/27 08:52:47;;;;;;;25.80;15.30;;;;;;;0.88;92.40;101497.66;4973427;28;20047;-77
2022/01/27 08:55:13;;;;;;;26.87;15.43;;;;;;;1.01;92.55;101498.78;4938893;28;20457;-75
2022/01/27 08:57:40;;;;;;;28.23;15.63;;;;;;;1.08;91.90;101501.16;4973345;28;20417;-76
2022/01/27 09:00:11;;;;;;;27.63;16.07;;;;;;;1.13;92.07;101508.47;4973135;28;20110;-79
2022/01/27 09:02:37;;;;;;;24.07;14.70;;;;;;;0.83;91.07;101470.03;4973551;28;20038;-78
2022/01/27 09:05:03;;;;;;;25.97;14.23;;;;;;;0.97;91.61;101502.69;4971482;28;20043;-77
2022/01/27 09:07:29;;;;;;;24.43;14.63;;;;;;;0.97;92.07;101487.44;4922892;28;20493;-77
2022/01/27 09:09:54;;;;;;;28.30;15.60;;;;;;;1.03;91.76;101490.53;4972979;28;20037;-74
2022/01/27 09:12:20;;;;;;;26.53;16.10;;;;;;;1.03;91.41;101456.59;4973116;28;20414;-79
2022/01/27 09:14:45;;;;;;;23.87;14.97;;;;;;;1.00;90.38;101436.88;4972727;28;20038;-78
2022/01/27 09:17:13;;;;;;;26.67;15.87;;;;;;;1.34;91.17;101493.34;4972624;28;20038;-80
2022/01/27 09:19:41;;;;;;;27.70;16.47;;;;;;;1.41;90.83;101479.53;4972757;28;20097;-79
2022/01/27 09:22:13;;;;;;;28.57;17.07;;;;;;;1.31;90.13;101438.75;4972590;28;20034;-79
2022/01/27 09:24:52;;;;;;;26.27;15.83;;;;;;;1.78;90.48;101488.81;4972841;28;20026;-78
2022/01/27 09:27:18;;;;;;;24.13;15.70;;;;;;;1.88;88.84;101482.88;4972747;28;20031;-77
2022/01/27 09:29:47;;;;;;;28.43;17.57;;;;;;;2.01;88.96;101479.75;4972877;28;20074;-77
2022/01/27 09:32:12;;;;;;;28.60;17.95;;;;;;;2.01;88.27;101461.03;4972211;28;20087;-75
2022/01/27 09:34:39;;;;;;;27.53;16.90;;;;;;;2.08;87.54;101459.16;4972585;28;20042;-78
2022/01/27 09:37:05;;;;;;;26.33;16.43;;;;;;;2.16;87.04;101459.81;4972857;28;20023;-75
2022/01/27 09:39:32;;;;;;;25.17;16.10;;;;;;;2.13;86.31;101422.97;4972694;28;20045;-76
2022/01/27 09:41:58;;;;;;;24.53;15.83;;;;;;;2.41;85.39;101473.00;4972375;28;20034;-80
2022/01/27 09:44:28;;;;;;;26.50;15.03;;;;;;;2.49;85.44;101460.91;4972614;28;20098;-78
2022/01/27 09:46:56;;;;;;;;;;;;;;;2.67;85.06;101465.81;4972882;28;20039;-78
2022/01/27 09:49:31;;;;;;;29.50;16.60;;;;;;;2.66;83.55;101448.72;4972362;28;19918;-75
2022/01/27 09:51:56;;;;;;;25.67;16.17;;;;;;;2.40;83.91;101396.41;4982865;28;20515;-78
2022/01/27 09:54:22;;;;;;;27.53;15.73;;;;;;;2.72;84.76;101454.34;4990742;28;20038;-81
2022/01/27 09:56:48;;;;;;;31.97;20.27;;;;;;;2.69;84.58;101437.13;4991622;28;20062;-77
2022/01/27 09:59:13;;;;;;;25.93;15.37;;;;;;;2.96;84.11;101424.88;4986712;28;20018;-77
2022/01/27 10:01:53;;;;;;;22.37;14.73;;;;;;;3.20;82.85;101413.28;4991398;28;20542;-76
2022/01/27 10:04:18;;;;;;;21.38;14.30;;;;;;;3.56;81.09;101422.13;4983681;28;20044;-79
2022/01/27 10:06:45;;;;;;;26.25;13.52;;;;;;;3.83;80.86;101422.53;4993401;28;20038;-76
2022/01/27 10:09:20;;;;;;;25.85;14.20;;;;;;;4.03;79.67;101397.66;4989056;28;20061;-78
2022/01/27 10:11:48;;;;;;;24.42;14.80;;;;;;;4.27;79.43;101414.00;4988251;28;20037;-79
2022/01/27 10:14:26;;;;;;;19.08;11.73;;;;;;;4.17;77.60;101403.84;4988836;28;20137;-79
2022/01/27 10:17:00;;;;;;;21.67;13.07;;;;;;;4.25;77.93;101394.22;4989280;28;20031;-78
2022/01/27 10:19:26;;;;;;;15.10;9.60;;;;;;;4.26;72.58;101393.44;4979320;28;20117;-78
2022/01/27 10:22:02;;;;;;;14.18;9.13;;;;;;;4.09;71.50;101372.59;4977359;28;20087;-78
2022/01/27 10:24:30;;;;;;;16.15;10.05;;;;;;;4.17;72.51;101399.63;4985656;28;20034;-78
2022/01/27 10:27:32;;;;;;;16.80;10.48;;;;;;;4.24;72.07;101398.44;4989973;28;20034;-77
2022/01/27 10:32:50;;;;;;;16.48;9.15;;;;;;;4.31;69.38;101399.81;4986764;28;20129;-76
2022/01/27 10:35:19;;;;;;;14.90;8.30;;;;;;;4.48;68.52;101383.22;4894328;29;20171;-77
2022/01/27 10:37:56;;;;;;;13.40;7.88;;;;;;;4.38;67.68;101359.47;4893609;29;20059;-77
2022/01/27 10:40:36;;;;;;;9.85;5.57;;;;;;;4.51;63.92;101378.31;4894291;29;20048;-79
2022/01/27 10:43:23;;;;;;;9.35;5.97;;;;;;;4.77;64.06;101369.16;4891609;29;20045;-79
2022/01/27 10:46:11;;;;;;;11.27;7.22;;;;;;;4.85;64.22;101368.06;4891897;29;20545;-78
2022/01/27 10:48:49;;;;;;;12.35;6.65;;;;;;;4.97;64.30;101363.88;4893355;29;20104;-78
2022/01/27 10:51:23;;;;;;;10.45;6.38;;;;;;;4.96;63.22;101363.72;4892897;29;20119;-77
2022/01/27 10:54:04;;;;;;;11.82;6.93;;;;;;;5.07;62.96;101361.97;4891307;29;20060;-78
2022/01/27 10:56:35;;;;;;;9.88;5.70;;;;;;;5.03;62.09;101353.19;4891493;29;20056;-78
2022/01/27 10:59:10;;;;;;;10.40;6.72;;;;;;;5.30;62.02;101356.88;4891361;29;20080;-77
2022/01/27 11:01:55;;;;;;;12.05;7.97;;;;;;;5.40;61.46;101337.94;4890833;29;20099;-76
2022/01/27 11:04:33;;;;;;;11.50;6.35;;;;;;;5.32;61.45;101346.72;4895412;29;20039;-76
2022/01/27 11:07:01;;;;;;;10.63;5.85;;;;;;;5.11;61.37;101349.53;4897940;29;20036;-73
2022/01/27 11:09:29;;;;;;;11.02;7.20;;;;;;;5.11;62.83;101344.41;4895617;29;20037;-76
2022/01/27 11:11:56;;;;;;;10.73;6.50;;;;;;;5.32;61.98;101339.94;4928970;28;20516;-77
2022/01/27 11:14:25;;;;;;;11.15;6.57;;;;;;;5.56;60.89;101339.00;4944194;28;20046;-76
2022/01/27 11:16:56;;;;;;;11.82;7.22;;;;;;;5.53;61.28;101326.00;4990767;28;21632;-74
2022/01/27 11:22:38;;;;;;;8.65;4.75;;;;;;;5.62;56.02;101335.25;4990323;28;20030;-74
2022/01/27 11:27:47;;;;;;;8.65;5.70;;;;;;;5.95;57.57;101320.44;4991758;28;20033;-74
2022/01/27 11:30:30;;;;;;;8.98;5.10;;;;;;;5.71;56.55;101305.91;4990017;28;20109;-75
2022/01/27 11:33:02;;;;;;;8.60;5.05;;;;;;;5.58;56.88;101320.44;4990357;28;20070;-74
2022/01/27 11:35:28;;;;;;;9.85;5.70;;;;;;;5.63;56.50;101292.56;4989615;28;20052;-73
2022/01/27 11:37:56;;;;;;;8.02;4.80;;;;;;;5.43;56.49;101307.44;4991995;28;20489;-74
2022/01/27 11:40:36;;;;;;;7.45;4.82;;;;;;;5.61;56.35;101310.41;4988514;28;20034;-75
2022/01/27 11:43:06;;;;;;;8.77;5.03;;;;;;;5.51;56.10;101318.22;4970785;28;20080;-73
2022/01/27 11:45:36;;;;;;;7.57;4.35;;;;;;;5.41;56.04;101318.31;4985678;28;20136;-71
2022/01/27 11:48:10;;;;;;;8.48;5.00;;;;;;;5.51;57.26;101313.09;4989938;28;20041;-76
2022/01/27 11:50:51;;;;;;;8.52;4.75;;;;;;;5.75;56.04;101313.06;4991143;28;20100;-78
2022/01/27 11:53:49;;;;;;;9.43;5.05;;;;;;;5.70;54.53;101302.47;4990838;28;20096;-75
2022/01/27 11:56:23;;;;;;;9.70;4.82;;;;;;;5.60;54.67;101274.44;4868236;29;20041;-73
2022/01/27 11:59:00;;;;;;;7.15;4.25;;;;;;;5.17;54.06;101208.28;4892194;29;20041;-66
2022/01/27 12:01:34;;;;;;;6.80;4.40;;;;;;;5.82;53.98;101287.94;4894030;29;20567;-77
2022/01/27 12:04:02;;;;;;;8.18;5.13;;;;;;;5.99;54.16;101291.72;4894046;29;20032;-72
2022/01/27 12:06:32;;;;;;;8.23;4.85;;;;;;;5.72;52.98;101203.56;4895188;29;20041;-71
2022/01/27 12:09:22;;;;;;;8.43;4.80;;;;;;;6.06;53.26;101275.06;4892314;29;20501;-68
2022/01/27 12:11:56;;;;;;;7.57;4.15;;;;;;;5.49;53.82;101240.38;4886408;29;20119;-70